Terminal Aerodrome Forecast
Issued by NWS Binghamton, NY

Home | Current Version | Previous Version | Text Only | Print | Product List | Glossary On
Versions: 1 2 3 4 5 6 7 8 9 10 11 12 13 14 15 16 17 18 19 20
054
FTUS41 KBGM 221126
TAFSYR
TAF
KSYR 221126Z 2212/2312 VRB03KT P6SM SKC
     FM221500 24006KT P6SM SCT120
     FM222100 VRB04KT P6SM BKN110
      TEMPO 2303/2307 -SHRA OVC050
     FM230800 19008KT P6SM OVC050=

USA.gov is the U.S. government's official web portal to all federal, state and local government web resources and services.